Multan Weather



Multan's Current Weather

Temprature 43.462o clear sky

clear sky

Rain: 0 %

Min Temprature43.462o
Max Temprature43.462o
Humidity18
Wind Speed3.01 m/h
Sun Rise05:14:09
Sun Set19:19:22
Current Time: 26-Jun-2019 14:48:54
Lat/Lon: 30.2, 71.47




Multan's Geo Location



Multan's Weather Forecast

Time Overall Temp Min Temp Max Temp Humidity Wind Speed Rain
26-Jun-2019 (Wed)
17:00:00 clear sky 43.850 43.850 43.850 15 4.27 m/h 0 %
20:00:00 clear sky 40.650 40.647 40.650 19 5.74 m/h 0 %
23:00:00 clear sky 38.540 38.540 38.540 23 4.55 m/h 0 %
27-Jun-2019 (Thu)
02:00:00 clear sky 36.880 36.879 36.880 25 2.77 m/h 0 %
05:00:00 clear sky 35.665 35.665 35.665 26 4.02 m/h 0 %
08:00:00 clear sky 38.850 38.850 38.850 25 5.28 m/h 0 %
11:00:00 clear sky 43.274 43.274 43.274 18 3.55 m/h 0 %
14:00:00 clear sky 46.350 46.350 46.350 11 0.53 m/h 0 %
17:00:00 few clouds 41.880 41.880 41.880 17 5.85 m/h 0 %
20:00:00 clear sky 40.394 40.394 40.394 19 8.26 m/h 0 %
23:00:00 clear sky 39.035 39.035 39.035 21 6.3 m/h 0 %
28-Jun-2019 (Fri)
02:00:00 clear sky 37.628 37.628 37.628 27 9.23 m/h 0 %
05:00:00 clear sky 34.928 34.928 34.928 40 7.29 m/h 0 %
08:00:00 clear sky 35.809 35.809 35.809 39 6.71 m/h 0 %
11:00:00 clear sky 42.325 42.325 42.325 22 4.54 m/h 0 %
14:00:00 clear sky 46.231 46.231 46.231 12 4.11 m/h 0 %
17:00:00 clear sky 46.550 46.550 46.550 11 6.83 m/h 0 %
20:00:00 clear sky 43.050 43.050 43.050 16 6.96 m/h 0 %
23:00:00 clear sky 40.572 40.572 40.572 20 7.39 m/h 0 %
29-Jun-2019 (Sat)
02:00:00 clear sky 37.972 37.972 37.972 28 8.1 m/h 0 %
05:00:00 clear sky 34.659 34.659 34.659 43 8.58 m/h 0 %
08:00:00 clear sky 35.267 35.267 35.267 43 8.83 m/h 0 %
11:00:00 clear sky 42.150 42.150 42.150 26 7.29 m/h 0 %
14:00:00 clear sky 47.250 47.250 47.250 11 5.51 m/h 0 %
17:00:00 clear sky 47.191 47.191 47.191 10 6.98 m/h 0 %
20:00:00 clear sky 43.350 43.350 43.350 13 7.44 m/h 0 %
23:00:00 clear sky 40.850 40.850 40.850 17 7.72 m/h 0 %
30-Jun-2019 (Sun)
02:00:00 clear sky 38.496 38.496 38.496 22 8.02 m/h 0 %
05:00:00 clear sky 34.902 34.902 34.902 44 9.21 m/h 0 %
08:00:00 clear sky 35.922 35.922 35.922 42 9.37 m/h 0 %
11:00:00 clear sky 42.118 42.118 42.118 25 8.6 m/h 0 %
14:00:00 clear sky 46.609 46.609 46.609 15 6.17 m/h 0 %
17:00:00 clear sky 46.950 46.950 46.950 12 6.12 m/h 0 %
20:00:00 clear sky 43.550 43.550 43.550 14 4.17 m/h 0 %
23:00:00 clear sky 40.950 40.950 40.950 17 6.93 m/h 0 %
01-Jul-2019 (Mon)
02:00:00 clear sky 38.150 38.150 38.150 29 9.23 m/h 0 %
05:00:00 clear sky 34.635 34.635 34.635 47 9.71 m/h 0 %
08:00:00 clear sky 35.150 35.150 35.150 47 9.47 m/h 0 %
11:00:00 clear sky 44.050 44.050 44.050 21 8.26 m/h 0 %
14:00:00 clear sky 48.450 48.450 48.450 11 7.54 m/h 0 %


Multan's Tourist Spots

Historical Places in Multan

Famous Cities (60)